sensor_id;sensor_type;location;lat;lon;timestamp;P1;durP1;ratioP1;P2;durP2;ratioP2
74926;SDS011;63488;48.092;-1.640;2023-03-14T00:02:02;2.88;;;0.85;;
74926;SDS011;63488;48.092;-1.640;2023-03-14T00:04:27;4.10;;;0.98;;
74926;SDS011;63488;48.092;-1.640;2023-03-14T00:06:53;2.28;;;0.68;;
74926;SDS011;63488;48.092;-1.640;2023-03-14T00:09:18;4.13;;;0.88;;
74926;SDS011;63488;48.092;-1.640;2023-03-14T00:11:43;4.05;;;0.90;;
74926;SDS011;63488;48.092;-1.640;2023-03-14T00:14:09;4.30;;;0.90;;
74926;SDS011;63488;48.092;-1.640;2023-03-14T00:16:34;3.20;;;0.60;;
74926;SDS011;63488;48.092;-1.640;2023-03-14T00:18:59;2.17;;;0.75;;
74926;SDS011;63488;48.092;-1.640;2023-03-14T00:21:25;3.22;;;0.60;;
74926;SDS011;63488;48.092;-1.640;2023-03-14T00:23:51;3.17;;;0.57;;
74926;SDS011;63488;48.092;-1.640;2023-03-14T00:26:17;4.95;;;0.80;;
74926;SDS011;63488;48.092;-1.640;2023-03-14T00:28:43;4.60;;;0.77;;
74926;SDS011;63488;48.092;-1.640;2023-03-14T00:31:09;4.00;;;0.88;;
74926;SDS011;63488;48.092;-1.640;2023-03-14T00:33:35;2.88;;;0.90;;
74926;SDS011;63488;48.092;-1.640;2023-03-14T00:36:02;3.15;;;0.80;;
74926;SDS011;63488;48.092;-1.640;2023-03-14T00:38:29;4.05;;;0.75;;
74926;SDS011;63488;48.092;-1.640;2023-03-14T00:40:54;4.35;;;0.73;;
74926;SDS011;63488;48.092;-1.640;2023-03-14T00:43:20;6.00;;;0.90;;
74926;SDS011;63488;48.092;-1.640;2023-03-14T00:45:47;3.80;;;0.80;;
74926;SDS011;63488;48.092;-1.640;2023-03-14T00:48:12;2.15;;;0.77;;
74926;SDS011;63488;48.092;-1.640;2023-03-14T00:50:38;1.73;;;0.50;;
74926;SDS011;63488;48.092;-1.640;2023-03-14T00:53:04;2.75;;;0.63;;
74926;SDS011;63488;48.092;-1.640;2023-03-14T00:55:29;4.18;;;0.50;;
74926;SDS011;63488;48.092;-1.640;2023-03-14T00:57:54;2.45;;;0.43;;
74926;SDS011;63488;48.092;-1.640;2023-03-14T01:00:20;2.50;;;0.50;;
74926;SDS011;63488;48.092;-1.640;2023-03-14T01:02:45;1.77;;;0.50;;
74926;SDS011;63488;48.092;-1.640;2023-03-14T01:05:10;1.40;;;0.50;;
74926;SDS011;63488;48.092;-1.640;2023-03-14T01:07:36;2.33;;;0.50;;
74926;SDS011;63488;48.092;-1.640;2023-03-14T01:10:02;1.73;;;0.50;;
74926;SDS011;63488;48.092;-1.640;2023-03-14T01:12:28;0.98;;;0.30;;
74926;SDS011;63488;48.092;-1.640;2023-03-14T01:14:53;2.58;;;0.60;;
74926;SDS011;63488;48.092;-1.640;2023-03-14T01:17:19;2.53;;;0.52;;
74926;SDS011;63488;48.092;-1.640;2023-03-14T01:19:44;6.10;;;1.08;;
74926;SDS011;63488;48.092;-1.640;2023-03-14T01:22:09;4.90;;;1.00;;
74926;SDS011;63488;48.092;-1.640;2023-03-14T01:24:36;3.17;;;0.90;;
74926;SDS011;63488;48.092;-1.640;2023-03-14T01:27:01;5.93;;;1.08;;
74926;SDS011;63488;48.092;-1.640;2023-03-14T01:29:27;7.22;;;1.40;;
74926;SDS011;63488;48.092;-1.640;2023-03-14T01:31:52;5.40;;;1.20;;
74926;SDS011;63488;48.092;-1.640;2023-03-14T01:34:17;6.00;;;0.95;;
74926;SDS011;63488;48.092;-1.640;2023-03-14T01:36:42;5.18;;;1.33;;
74926;SDS011;63488;48.092;-1.640;2023-03-14T01:39:08;9.15;;;1.70;;
74926;SDS011;63488;48.092;-1.640;2023-03-14T01:41:34;7.88;;;1.83;;
74926;SDS011;63488;48.092;-1.640;2023-03-14T01:43:59;6.72;;;1.52;;
74926;SDS011;63488;48.092;-1.640;2023-03-14T01:51:23;9.38;;;1.83;;
74926;SDS011;63488;48.092;-1.640;2023-03-14T01:53:50;8.43;;;1.80;;
74926;SDS011;63488;48.092;-1.640;2023-03-14T01:56:16;8.90;;;1.95;;
74926;SDS011;63488;48.092;-1.640;2023-03-14T01:58:42;9.80;;;2.15;;
74926;SDS011;63488;48.092;-1.640;2023-03-14T02:01:09;11.15;;;1.95;;
74926;SDS011;63488;48.092;-1.640;2023-03-14T02:03:36;6.90;;;1.52;;
74926;SDS011;63488;48.092;-1.640;2023-03-14T02:06:04;5.45;;;1.52;;
74926;SDS011;63488;48.092;-1.640;2023-03-14T02:08:31;10.13;;;1.65;;
74926;SDS011;63488;48.092;-1.640;2023-03-14T02:10:56;7.53;;;1.42;;
74926;SDS011;63488;48.092;-1.640;2023-03-14T02:13:21;8.48;;;1.58;;
74926;SDS011;63488;48.092;-1.640;2023-03-14T02:15:47;8.18;;;1.67;;
74926;SDS011;63488;48.092;-1.640;2023-03-14T02:18:13;6.05;;;1.90;;
74926;SDS011;63488;48.092;-1.640;2023-03-14T02:23:15;5.93;;;1.38;;
74926;SDS011;63488;48.092;-1.640;2023-03-14T02:28:09;7.82;;;1.42;;
74926;SDS011;63488;48.092;-1.640;2023-03-14T02:30:35;8.45;;;1.58;;
74926;SDS011;63488;48.092;-1.640;2023-03-14T02:33:01;7.95;;;1.85;;
74926;SDS011;63488;48.092;-1.640;2023-03-14T02:35:29;7.63;;;1.70;;
74926;SDS011;63488;48.092;-1.640;2023-03-14T02:38:00;9.43;;;2.20;;
74926;SDS011;63488;48.092;-1.640;2023-03-14T02:40:28;10.88;;;1.80;;
74926;SDS011;63488;48.092;-1.640;2023-03-14T02:42:54;9.50;;;1.60;;
74926;SDS011;63488;48.092;-1.640;2023-03-14T02:47:52;10.02;;;2.10;;
74926;SDS011;63488;48.092;-1.640;2023-03-14T02:50:20;7.05;;;1.55;;
74926;SDS011;63488;48.092;-1.640;2023-03-14T02:52:46;9.15;;;1.92;;
74926;SDS011;63488;48.092;-1.640;2023-03-14T02:55:11;7.38;;;1.75;;
74926;SDS011;63488;48.092;-1.640;2023-03-14T02:57:37;7.43;;;1.40;;
74926;SDS011;63488;48.092;-1.640;2023-03-14T03:00:02;7.93;;;1.63;;
74926;SDS011;63488;48.092;-1.640;2023-03-14T03:02:31;6.05;;;1.40;;
74926;SDS011;63488;48.092;-1.640;2023-03-14T03:04:57;7.82;;;1.48;;
74926;SDS011;63488;48.092;-1.640;2023-03-14T03:07:23;3.78;;;1.20;;
74926;SDS011;63488;48.092;-1.640;2023-03-14T03:09:48;6.28;;;1.30;;
74926;SDS011;63488;48.092;-1.640;2023-03-14T03:12:13;8.27;;;1.35;;
74926;SDS011;63488;48.092;-1.640;2023-03-14T03:14:39;7.68;;;1.15;;
74926;SDS011;63488;48.092;-1.640;2023-03-14T03:17:04;8.45;;;1.77;;
74926;SDS011;63488;48.092;-1.640;2023-03-14T03:19:30;3.78;;;1.10;;
74926;SDS011;63488;48.092;-1.640;2023-03-14T03:21:55;7.47;;;1.35;;
74926;SDS011;63488;48.092;-1.640;2023-03-14T03:24:21;6.95;;;0.95;;
74926;SDS011;63488;48.092;-1.640;2023-03-14T03:26:46;7.70;;;1.08;;
74926;SDS011;63488;48.092;-1.640;2023-03-14T03:29:11;8.10;;;1.42;;
74926;SDS011;63488;48.092;-1.640;2023-03-14T03:31:37;7.57;;;1.80;;
74926;SDS011;63488;48.092;-1.640;2023-03-14T03:34:03;8.73;;;1.77;;
74926;SDS011;63488;48.092;-1.640;2023-03-14T03:36:28;8.63;;;1.60;;
74926;SDS011;63488;48.092;-1.640;2023-03-14T03:38:54;7.10;;;1.27;;
74926;SDS011;63488;48.092;-1.640;2023-03-14T03:41:19;7.13;;;1.67;;
74926;SDS011;63488;48.092;-1.640;2023-03-14T03:43:44;6.10;;;1.60;;
74926;SDS011;63488;48.092;-1.640;2023-03-14T03:46:10;5.57;;;1.50;;
74926;SDS011;63488;48.092;-1.640;2023-03-14T03:48:35;8.90;;;1.48;;
74926;SDS011;63488;48.092;-1.640;2023-03-14T03:51:01;8.00;;;1.50;;
74926;SDS011;63488;48.092;-1.640;2023-03-14T03:53:26;10.85;;;1.65;;
74926;SDS011;63488;48.092;-1.640;2023-03-14T03:55:52;7.38;;;1.80;;
74926;SDS011;63488;48.092;-1.640;2023-03-14T03:58:17;7.80;;;1.48;;
74926;SDS011;63488;48.092;-1.640;2023-03-14T04:00:43;7.35;;;1.13;;
74926;SDS011;63488;48.092;-1.640;2023-03-14T04:03:08;7.65;;;1.70;;
74926;SDS011;63488;48.092;-1.640;2023-03-14T04:05:33;5.97;;;1.67;;
74926;SDS011;63488;48.092;-1.640;2023-03-14T04:07:59;8.35;;;1.60;;
74926;SDS011;63488;48.092;-1.640;2023-03-14T04:10:25;8.52;;;1.85;;
74926;SDS011;63488;48.092;-1.640;2023-03-14T04:12:50;9.77;;;1.98;;
74926;SDS011;63488;48.092;-1.640;2023-03-14T04:15:15;8.15;;;2.03;;
74926;SDS011;63488;48.092;-1.640;2023-03-14T04:17:40;9.98;;;2.08;;
74926;SDS011;63488;48.092;-1.640;2023-03-14T04:20:06;7.20;;;1.58;;
74926;SDS011;63488;48.092;-1.640;2023-03-14T04:22:35;7.03;;;1.77;;
74926;SDS011;63488;48.092;-1.640;2023-03-14T04:25:01;5.47;;;1.50;;
74926;SDS011;63488;48.092;-1.640;2023-03-14T04:27:28;6.18;;;1.30;;
74926;SDS011;63488;48.092;-1.640;2023-03-14T04:29:53;8.45;;;1.50;;
74926;SDS011;63488;48.092;-1.640;2023-03-14T04:32:19;7.88;;;1.80;;
74926;SDS011;63488;48.092;-1.640;2023-03-14T04:34:44;5.47;;;1.38;;
74926;SDS011;63488;48.092;-1.640;2023-03-14T04:37:10;8.82;;;1.67;;
74926;SDS011;63488;48.092;-1.640;2023-03-14T04:39:35;6.13;;;1.20;;
74926;SDS011;63488;48.092;-1.640;2023-03-14T04:42:01;6.78;;;1.45;;
74926;SDS011;63488;48.092;-1.640;2023-03-14T04:44:26;6.82;;;1.90;;
74926;SDS011;63488;48.092;-1.640;2023-03-14T04:46:51;8.48;;;2.33;;
74926;SDS011;63488;48.092;-1.640;2023-03-14T04:49:16;10.15;;;1.95;;
74926;SDS011;63488;48.092;-1.640;2023-03-14T04:51:42;6.38;;;1.70;;
74926;SDS011;63488;48.092;-1.640;2023-03-14T04:54:07;7.68;;;1.95;;
74926;SDS011;63488;48.092;-1.640;2023-03-14T04:56:32;5.97;;;1.58;;
74926;SDS011;63488;48.092;-1.640;2023-03-14T04:58:58;7.40;;;2.03;;
74926;SDS011;63488;48.092;-1.640;2023-03-14T05:01:23;8.63;;;1.52;;
74926;SDS011;63488;48.092;-1.640;2023-03-14T05:03:48;6.32;;;1.50;;
74926;SDS011;63488;48.092;-1.640;2023-03-14T05:06:14;6.10;;;1.50;;
74926;SDS011;63488;48.092;-1.640;2023-03-14T05:08:39;6.82;;;1.50;;
74926;SDS011;63488;48.092;-1.640;2023-03-14T05:11:05;9.77;;;1.90;;
74926;SDS011;63488;48.092;-1.640;2023-03-14T05:13:30;9.52;;;2.30;;
74926;SDS011;63488;48.092;-1.640;2023-03-14T05:16:03;7.20;;;1.63;;
74926;SDS011;63488;48.092;-1.640;2023-03-14T05:18:28;10.00;;;2.08;;
74926;SDS011;63488;48.092;-1.640;2023-03-14T05:20:54;7.05;;;1.55;;
74926;SDS011;63488;48.092;-1.640;2023-03-14T05:23:19;6.50;;;2.00;;
74926;SDS011;63488;48.092;-1.640;2023-03-14T05:25:44;7.28;;;1.45;;
74926;SDS011;63488;48.092;-1.640;2023-03-14T05:28:10;7.65;;;1.88;;
74926;SDS011;63488;48.092;-1.640;2023-03-14T05:30:35;7.90;;;1.55;;
74926;SDS011;63488;48.092;-1.640;2023-03-14T05:33:00;8.55;;;2.03;;
74926;SDS011;63488;48.092;-1.640;2023-03-14T05:35:26;7.30;;;1.52;;
74926;SDS011;63488;48.092;-1.640;2023-03-14T05:37:51;11.20;;;2.25;;
74926;SDS011;63488;48.092;-1.640;2023-03-14T05:40:16;10.30;;;2.03;;
74926;SDS011;63488;48.092;-1.640;2023-03-14T05:42:42;9.13;;;2.10;;
74926;SDS011;63488;48.092;-1.640;2023-03-14T05:45:07;9.02;;;2.10;;
74926;SDS011;63488;48.092;-1.640;2023-03-14T05:47:32;10.38;;;1.88;;
74926;SDS011;63488;48.092;-1.640;2023-03-14T05:49:58;9.48;;;2.03;;
74926;SDS011;63488;48.092;-1.640;2023-03-14T05:52:23;9.13;;;1.85;;
74926;SDS011;63488;48.092;-1.640;2023-03-14T05:54:48;10.50;;;1.90;;
74926;SDS011;63488;48.092;-1.640;2023-03-14T05:57:14;7.32;;;2.10;;
74926;SDS011;63488;48.092;-1.640;2023-03-14T05:59:39;8.52;;;2.10;;
74926;SDS011;63488;48.092;-1.640;2023-03-14T06:02:04;11.82;;;2.05;;
74926;SDS011;63488;48.092;-1.640;2023-03-14T06:04:30;7.05;;;1.65;;
74926;SDS011;63488;48.092;-1.640;2023-03-14T06:06:55;8.15;;;1.90;;
74926;SDS011;63488;48.092;-1.640;2023-03-14T06:09:20;9.70;;;1.88;;
74926;SDS011;63488;48.092;-1.640;2023-03-14T06:11:48;10.23;;;1.77;;
74926;SDS011;63488;48.092;-1.640;2023-03-14T06:14:13;11.05;;;2.35;;
74926;SDS011;63488;48.092;-1.640;2023-03-14T06:16:39;9.80;;;1.50;;
74926;SDS011;63488;48.092;-1.640;2023-03-14T06:19:04;6.97;;;1.40;;
74926;SDS011;63488;48.092;-1.640;2023-03-14T06:21:29;6.28;;;1.33;;
74926;SDS011;63488;48.092;-1.640;2023-03-14T06:23:55;10.13;;;2.33;;
74926;SDS011;63488;48.092;-1.640;2023-03-14T06:26:20;10.52;;;2.40;;
74926;SDS011;63488;48.092;-1.640;2023-03-14T06:28:46;10.80;;;1.90;;
74926;SDS011;63488;48.092;-1.640;2023-03-14T06:31:12;10.45;;;1.70;;
74926;SDS011;63488;48.092;-1.640;2023-03-14T06:33:37;9.50;;;1.73;;
74926;SDS011;63488;48.092;-1.640;2023-03-14T06:36:02;9.48;;;1.40;;
74926;SDS011;63488;48.092;-1.640;2023-03-14T06:38:28;7.05;;;1.67;;
74926;SDS011;63488;48.092;-1.640;2023-03-14T06:40:53;6.95;;;1.63;;
74926;SDS011;63488;48.092;-1.640;2023-03-14T06:43:18;11.23;;;1.75;;
74926;SDS011;63488;48.092;-1.640;2023-03-14T06:45:44;6.30;;;1.58;;
74926;SDS011;63488;48.092;-1.640;2023-03-14T06:48:09;6.90;;;1.50;;
74926;SDS011;63488;48.092;-1.640;2023-03-14T06:50:35;6.03;;;1.42;;
74926;SDS011;63488;48.092;-1.640;2023-03-14T06:53:01;7.93;;;1.42;;
74926;SDS011;63488;48.092;-1.640;2023-03-14T06:55:26;4.68;;;1.08;;
74926;SDS011;63488;48.092;-1.640;2023-03-14T06:57:51;5.15;;;1.23;;
74926;SDS011;63488;48.092;-1.640;2023-03-14T07:00:17;5.95;;;1.30;;
74926;SDS011;63488;48.092;-1.640;2023-03-14T07:02:42;10.68;;;1.90;;
74926;SDS011;63488;48.092;-1.640;2023-03-14T07:05:07;10.82;;;1.40;;
74926;SDS011;63488;48.092;-1.640;2023-03-14T07:07:35;6.82;;;1.38;;
74926;SDS011;63488;48.092;-1.640;2023-03-14T07:10:00;5.00;;;1.33;;
74926;SDS011;63488;48.092;-1.640;2023-03-14T07:12:25;8.85;;;2.15;;
74926;SDS011;63488;48.092;-1.640;2023-03-14T07:14:51;8.13;;;1.70;;
74926;SDS011;63488;48.092;-1.640;2023-03-14T07:17:16;7.45;;;1.48;;
74926;SDS011;63488;48.092;-1.640;2023-03-14T07:19:41;7.00;;;1.75;;
74926;SDS011;63488;48.092;-1.640;2023-03-14T07:22:07;5.65;;;1.50;;
74926;SDS011;63488;48.092;-1.640;2023-03-14T07:24:32;12.80;;;2.03;;
74926;SDS011;63488;48.092;-1.640;2023-03-14T07:26:57;5.45;;;1.90;;
74926;SDS011;63488;48.092;-1.640;2023-03-14T07:29:23;7.18;;;1.50;;
74926;SDS011;63488;48.092;-1.640;2023-03-14T07:31:48;6.18;;;1.38;;
74926;SDS011;63488;48.092;-1.640;2023-03-14T07:34:14;6.90;;;1.25;;
74926;SDS011;63488;48.092;-1.640;2023-03-14T07:36:39;7.85;;;1.42;;
74926;SDS011;63488;48.092;-1.640;2023-03-14T07:39:05;5.57;;;1.40;;
74926;SDS011;63488;48.092;-1.640;2023-03-14T07:41:30;5.38;;;1.60;;
74926;SDS011;63488;48.092;-1.640;2023-03-14T07:43:56;5.53;;;1.40;;
74926;SDS011;63488;48.092;-1.640;2023-03-14T07:46:21;6.93;;;1.30;;
74926;SDS011;63488;48.092;-1.640;2023-03-14T07:48:46;6.53;;;1.50;;
74926;SDS011;63488;48.092;-1.640;2023-03-14T07:51:12;7.28;;;1.90;;
74926;SDS011;63488;48.092;-1.640;2023-03-14T07:53:37;7.30;;;1.50;;
74926;SDS011;63488;48.092;-1.640;2023-03-14T07:56:04;5.38;;;1.35;;
74926;SDS011;63488;48.092;-1.640;2023-03-14T07:58:29;7.72;;;1.40;;
74926;SDS011;63488;48.092;-1.640;2023-03-14T08:00:55;6.60;;;1.40;;
74926;SDS011;63488;48.092;-1.640;2023-03-14T08:03:20;6.05;;;1.38;;
74926;SDS011;63488;48.092;-1.640;2023-03-14T08:05:49;6.68;;;1.60;;
74926;SDS011;63488;48.092;-1.640;2023-03-14T08:08:15;8.57;;;1.60;;
74926;SDS011;63488;48.092;-1.640;2023-03-14T08:10:41;6.57;;;1.38;;
74926;SDS011;63488;48.092;-1.640;2023-03-14T08:13:06;7.20;;;1.38;;
74926;SDS011;63488;48.092;-1.640;2023-03-14T08:15:31;7.80;;;1.25;;
74926;SDS011;63488;48.092;-1.640;2023-03-14T08:17:57;6.70;;;1.50;;
74926;SDS011;63488;48.092;-1.640;2023-03-14T08:20:23;7.80;;;1.45;;
74926;SDS011;63488;48.092;-1.640;2023-03-14T08:22:49;5.78;;;1.80;;
74926;SDS011;63488;48.092;-1.640;2023-03-14T08:25:14;6.07;;;1.52;;
74926;SDS011;63488;48.092;-1.640;2023-03-14T08:27:41;9.02;;;1.40;;
74926;SDS011;63488;48.092;-1.640;2023-03-14T08:30:07;4.07;;;1.05;;
74926;SDS011;63488;48.092;-1.640;2023-03-14T08:32:33;6.55;;;1.50;;
74926;SDS011;63488;48.092;-1.640;2023-03-14T08:34:58;6.15;;;1.33;;
74926;SDS011;63488;48.092;-1.640;2023-03-14T08:37:24;7.05;;;1.50;;
74926;SDS011;63488;48.092;-1.640;2023-03-14T08:39:50;8.68;;;1.90;;
74926;SDS011;63488;48.092;-1.640;2023-03-14T08:42:15;8.88;;;1.50;;
74926;SDS011;63488;48.092;-1.640;2023-03-14T08:44:41;7.22;;;1.65;;
74926;SDS011;63488;48.092;-1.640;2023-03-14T08:47:06;6.05;;;1.65;;
74926;SDS011;63488;48.092;-1.640;2023-03-14T08:49:32;7.53;;;1.55;;
74926;SDS011;63488;48.092;-1.640;2023-03-14T08:51:57;5.43;;;1.38;;
74926;SDS011;63488;48.092;-1.640;2023-03-14T08:54:23;7.43;;;1.50;;
74926;SDS011;63488;48.092;-1.640;2023-03-14T08:56:49;4.75;;;1.15;;
74926;SDS011;63488;48.092;-1.640;2023-03-14T08:59:14;6.32;;;1.50;;
74926;SDS011;63488;48.092;-1.640;2023-03-14T09:01:39;8.02;;;1.98;;
74926;SDS011;63488;48.092;-1.640;2023-03-14T09:04:05;5.43;;;1.33;;
74926;SDS011;63488;48.092;-1.640;2023-03-14T09:06:31;6.80;;;1.45;;
74926;SDS011;63488;48.092;-1.640;2023-03-14T09:08:57;8.98;;;1.52;;
74926;SDS011;63488;48.092;-1.640;2023-03-14T09:11:22;10.32;;;1.63;;
74926;SDS011;63488;48.092;-1.640;2023-03-14T09:13:47;7.97;;;1.42;;
74926;SDS011;63488;48.092;-1.640;2023-03-14T09:16:13;6.90;;;1.52;;
74926;SDS011;63488;48.092;-1.640;2023-03-14T09:18:39;7.90;;;1.45;;
74926;SDS011;63488;48.092;-1.640;2023-03-14T09:21:04;8.75;;;1.60;;
74926;SDS011;63488;48.092;-1.640;2023-03-14T09:23:30;6.28;;;1.70;;
74926;SDS011;63488;48.092;-1.640;2023-03-14T09:25:56;8.80;;;1.45;;
74926;SDS011;63488;48.092;-1.640;2023-03-14T09:28:23;9.27;;;1.77;;
74926;SDS011;63488;48.092;-1.640;2023-03-14T09:30:49;6.68;;;1.70;;
74926;SDS011;63488;48.092;-1.640;2023-03-14T09:33:16;7.88;;;1.40;;
74926;SDS011;63488;48.092;-1.640;2023-03-14T09:35:41;8.15;;;1.42;;
74926;SDS011;63488;48.092;-1.640;2023-03-14T09:38:07;6.57;;;1.65;;
74926;SDS011;63488;48.092;-1.640;2023-03-14T09:40:34;5.35;;;1.25;;
74926;SDS011;63488;48.092;-1.640;2023-03-14T09:43:00;7.43;;;2.10;;
74926;SDS011;63488;48.092;-1.640;2023-03-14T09:45:28;5.78;;;1.25;;
74926;SDS011;63488;48.092;-1.640;2023-03-14T09:47:55;6.68;;;1.58;;
74926;SDS011;63488;48.092;-1.640;2023-03-14T09:50:21;3.55;;;1.33;;
74926;SDS011;63488;48.092;-1.640;2023-03-14T09:52:48;7.32;;;1.05;;
74926;SDS011;63488;48.092;-1.640;2023-03-14T09:55:16;7.03;;;1.70;;
74926;SDS011;63488;48.092;-1.640;2023-03-14T09:57:41;6.32;;;1.40;;
74926;SDS011;63488;48.092;-1.640;2023-03-14T10:02:40;7.45;;;1.85;;
74926;SDS011;63488;48.092;-1.640;2023-03-14T10:05:27;7.88;;;1.52;;
74926;SDS011;63488;48.092;-1.640;2023-03-14T10:07:54;5.15;;;1.20;;
74926;SDS011;63488;48.092;-1.640;2023-03-14T10:10:21;6.35;;;1.50;;
74926;SDS011;63488;48.092;-1.640;2023-03-14T10:12:48;8.00;;;1.92;;
74926;SDS011;63488;48.092;-1.640;2023-03-14T10:15:22;7.53;;;2.05;;
74926;SDS011;63488;48.092;-1.640;2023-03-14T10:17:49;8.18;;;1.67;;
74926;SDS011;63488;48.092;-1.640;2023-03-14T10:20:34;4.38;;;1.70;;
74926;SDS011;63488;48.092;-1.640;2023-03-14T10:23:22;7.80;;;2.00;;
74926;SDS011;63488;48.092;-1.640;2023-03-14T10:25:46;6.30;;;1.60;;
74926;SDS011;63488;48.092;-1.640;2023-03-14T10:28:26;6.68;;;1.73;;
74926;SDS011;63488;48.092;-1.640;2023-03-14T10:30:51;9.05;;;2.13;;
74926;SDS011;63488;48.092;-1.640;2023-03-14T10:33:24;5.13;;;1.65;;
74926;SDS011;63488;48.092;-1.640;2023-03-14T10:35:57;6.93;;;1.63;;
74926;SDS011;63488;48.092;-1.640;2023-03-14T10:38:25;7.30;;;1.38;;
74926;SDS011;63488;48.092;-1.640;2023-03-14T10:40:52;4.13;;;1.30;;
74926;SDS011;63488;48.092;-1.640;2023-03-14T10:43:19;7.50;;;1.88;;
74926;SDS011;63488;48.092;-1.640;2023-03-14T10:45:51;6.95;;;1.52;;
74926;SDS011;63488;48.092;-1.640;2023-03-14T10:48:18;9.80;;;2.70;;
74926;SDS011;63488;48.092;-1.640;2023-03-14T10:50:49;4.63;;;1.50;;
74926;SDS011;63488;48.092;-1.640;2023-03-14T10:53:18;6.38;;;1.85;;
74926;SDS011;63488;48.092;-1.640;2023-03-14T10:55:44;5.47;;;1.20;;
74926;SDS011;63488;48.092;-1.640;2023-03-14T10:58:23;10.15;;;1.55;;
74926;SDS011;63488;48.092;-1.640;2023-03-14T11:01:08;7.90;;;1.83;;
74926;SDS011;63488;48.092;-1.640;2023-03-14T11:03:35;4.88;;;1.13;;
74926;SDS011;63488;48.092;-1.640;2023-03-14T11:08:29;5.13;;;1.27;;
74926;SDS011;63488;48.092;-1.640;2023-03-14T11:11:01;7.78;;;1.48;;
74926;SDS011;63488;48.092;-1.640;2023-03-14T11:13:44;6.85;;;1.33;;
74926;SDS011;63488;48.092;-1.640;2023-03-14T11:16:27;5.47;;;1.70;;
74926;SDS011;63488;48.092;-1.640;2023-03-14T11:23:58;7.75;;;1.40;;
74926;SDS011;63488;48.092;-1.640;2023-03-14T11:31:43;4.45;;;1.30;;
74926;SDS011;63488;48.092;-1.640;2023-03-14T11:36:39;7.20;;;1.55;;
74926;SDS011;63488;48.092;-1.640;2023-03-14T11:41:31;7.00;;;1.60;;
74926;SDS011;63488;48.092;-1.640;2023-03-14T11:43:59;7.97;;;1.37;;
74926;SDS011;63488;48.092;-1.640;2023-03-14T11:46:27;8.82;;;2.17;;
74926;SDS011;63488;48.092;-1.640;2023-03-14T11:49:01;6.78;;;1.58;;
74926;SDS011;63488;48.092;-1.640;2023-03-14T11:51:37;8.73;;;1.95;;
74926;SDS011;63488;48.092;-1.640;2023-03-14T11:56:49;6.47;;;1.20;;
74926;SDS011;63488;48.092;-1.640;2023-03-14T11:59:27;6.00;;;1.70;;
74926;SDS011;63488;48.092;-1.640;2023-03-14T12:01:56;7.03;;;1.42;;
74926;SDS011;63488;48.092;-1.640;2023-03-14T12:06:57;5.30;;;1.20;;
74926;SDS011;63488;48.092;-1.640;2023-03-14T12:09:28;7.15;;;1.58;;
74926;SDS011;63488;48.092;-1.640;2023-03-14T12:11:59;8.88;;;1.60;;
74926;SDS011;63488;48.092;-1.640;2023-03-14T12:16:53;8.00;;;1.70;;
74926;SDS011;63488;48.092;-1.640;2023-03-14T12:21:55;9.88;;;1.90;;
74926;SDS011;63488;48.092;-1.640;2023-03-14T12:24:25;8.05;;;1.77;;
74926;SDS011;63488;48.092;-1.640;2023-03-14T12:26:53;9.35;;;2.10;;
74926;SDS011;63488;48.092;-1.640;2023-03-14T12:29:19;10.23;;;2.13;;
74926;SDS011;63488;48.092;-1.640;2023-03-14T12:32:06;8.20;;;1.85;;
74926;SDS011;63488;48.092;-1.640;2023-03-14T12:34:30;10.75;;;1.65;;
74926;SDS011;63488;48.092;-1.640;2023-03-14T12:36:59;4.03;;;1.13;;
74926;SDS011;63488;48.092;-1.640;2023-03-14T12:42:05;6.60;;;1.48;;
74926;SDS011;63488;48.092;-1.640;2023-03-14T12:44:42;7.72;;;1.58;;
74926;SDS011;63488;48.092;-1.640;2023-03-14T12:49:43;6.75;;;1.67;;
74926;SDS011;63488;48.092;-1.640;2023-03-14T12:52:16;10.43;;;2.10;;
74926;SDS011;63488;48.092;-1.640;2023-03-14T12:54:46;8.73;;;2.13;;
74926;SDS011;63488;48.092;-1.640;2023-03-14T12:59:58;6.30;;;1.75;;
74926;SDS011;63488;48.092;-1.640;2023-03-14T13:07:31;8.93;;;1.67;;
74926;SDS011;63488;48.092;-1.640;2023-03-14T13:12:23;7.38;;;1.48;;
74926;SDS011;63488;48.092;-1.640;2023-03-14T13:17:29;9.73;;;2.17;;
74926;SDS011;63488;48.092;-1.640;2023-03-14T13:19:56;8.15;;;1.63;;
74926;SDS011;63488;48.092;-1.640;2023-03-14T13:22:30;6.47;;;1.80;;
74926;SDS011;63488;48.092;-1.640;2023-03-14T13:25:03;6.88;;;1.33;;
74926;SDS011;63488;48.092;-1.640;2023-03-14T13:27:31;9.18;;;1.90;;
74926;SDS011;63488;48.092;-1.640;2023-03-14T13:29:58;6.03;;;1.27;;
74926;SDS011;63488;48.092;-1.640;2023-03-14T13:32:27;5.22;;;1.13;;
74926;SDS011;63488;48.092;-1.640;2023-03-14T13:34:57;9.25;;;1.80;;
74926;SDS011;63488;48.092;-1.640;2023-03-14T13:37:23;6.95;;;1.60;;
74926;SDS011;63488;48.092;-1.640;2023-03-14T13:39:55;7.45;;;1.95;;
74926;SDS011;63488;48.092;-1.640;2023-03-14T13:42:21;8.18;;;1.40;;
74926;SDS011;63488;48.092;-1.640;2023-03-14T13:44:49;7.15;;;2.42;;
74926;SDS011;63488;48.092;-1.640;2023-03-14T13:47:17;8.70;;;2.30;;
74926;SDS011;63488;48.092;-1.640;2023-03-14T13:49:43;12.75;;;3.10;;
74926;SDS011;63488;48.092;-1.640;2023-03-14T13:52:22;10.23;;;2.75;;
74926;SDS011;63488;48.092;-1.640;2023-03-14T13:54:48;11.13;;;3.00;;
74926;SDS011;63488;48.092;-1.640;2023-03-14T13:57:13;9.48;;;2.53;;
74926;SDS011;63488;48.092;-1.640;2023-03-14T13:59:38;11.63;;;2.40;;
74926;SDS011;63488;48.092;-1.640;2023-03-14T14:02:12;14.80;;;3.20;;
74926;SDS011;63488;48.092;-1.640;2023-03-14T14:04:39;7.35;;;1.88;;
74926;SDS011;63488;48.092;-1.640;2023-03-14T14:07:09;9.60;;;2.00;;
74926;SDS011;63488;48.092;-1.640;2023-03-14T14:09:37;9.55;;;2.50;;
74926;SDS011;63488;48.092;-1.640;2023-03-14T14:12:05;10.02;;;2.70;;
74926;SDS011;63488;48.092;-1.640;2023-03-14T14:17:24;7.55;;;1.98;;
74926;SDS011;63488;48.092;-1.640;2023-03-14T14:19:50;10.43;;;2.00;;
74926;SDS011;63488;48.092;-1.640;2023-03-14T14:22:16;8.20;;;2.20;;
74926;SDS011;63488;48.092;-1.640;2023-03-14T14:24:42;8.68;;;1.95;;
74926;SDS011;63488;48.092;-1.640;2023-03-14T14:27:17;8.70;;;2.50;;
74926;SDS011;63488;48.092;-1.640;2023-03-14T14:29:56;10.18;;;1.90;;
74926;SDS011;63488;48.092;-1.640;2023-03-14T14:32:22;9.27;;;1.90;;
74926;SDS011;63488;48.092;-1.640;2023-03-14T14:39:48;5.82;;;1.55;;
74926;SDS011;63488;48.092;-1.640;2023-03-14T14:42:18;8.13;;;1.40;;
74926;SDS011;63488;48.092;-1.640;2023-03-14T14:44:43;9.90;;;2.10;;
74926;SDS011;63488;48.092;-1.640;2023-03-14T14:47:15;6.72;;;2.15;;
74926;SDS011;63488;48.092;-1.640;2023-03-14T14:49:43;4.85;;;1.30;;
74926;SDS011;63488;48.092;-1.640;2023-03-14T14:52:11;6.47;;;1.52;;
74926;SDS011;63488;48.092;-1.640;2023-03-14T14:54:38;7.03;;;1.60;;
74926;SDS011;63488;48.092;-1.640;2023-03-14T14:57:05;7.45;;;2.10;;
74926;SDS011;63488;48.092;-1.640;2023-03-14T14:59:31;5.40;;;1.20;;
74926;SDS011;63488;48.092;-1.640;2023-03-14T15:01:59;7.18;;;1.65;;
74926;SDS011;63488;48.092;-1.640;2023-03-14T15:04:25;6.15;;;1.30;;
74926;SDS011;63488;48.092;-1.640;2023-03-14T15:06:51;7.50;;;1.60;;
74926;SDS011;63488;48.092;-1.640;2023-03-14T15:09:17;5.63;;;0.88;;
74926;SDS011;63488;48.092;-1.640;2023-03-14T15:11:44;7.38;;;1.13;;
74926;SDS011;63488;48.092;-1.640;2023-03-14T15:14:12;6.97;;;1.20;;
74926;SDS011;63488;48.092;-1.640;2023-03-14T15:16:37;9.48;;;1.45;;
74926;SDS011;63488;48.092;-1.640;2023-03-14T15:19:08;4.85;;;1.08;;
74926;SDS011;63488;48.092;-1.640;2023-03-14T15:21:34;4.07;;;1.10;;
74926;SDS011;63488;48.092;-1.640;2023-03-14T15:24:00;5.13;;;1.02;;
74926;SDS011;63488;48.092;-1.640;2023-03-14T15:26:26;6.43;;;1.55;;
74926;SDS011;63488;48.092;-1.640;2023-03-14T15:28:52;5.32;;;1.30;;
74926;SDS011;63488;48.092;-1.640;2023-03-14T15:31:18;4.70;;;1.20;;
74926;SDS011;63488;48.092;-1.640;2023-03-14T15:33:44;6.05;;;1.33;;
74926;SDS011;63488;48.092;-1.640;2023-03-14T15:36:26;4.95;;;1.35;;
74926;SDS011;63488;48.092;-1.640;2023-03-14T15:38:52;4.25;;;0.98;;
74926;SDS011;63488;48.092;-1.640;2023-03-14T15:41:18;6.18;;;1.40;;